sensor_id;sensor_type;location;lat;lon;timestamp;pressure;altitude;pressure_sealevel;temperature;humidity
69848;BME280;57143;55.940;37.496;2022-10-16T00:00:00;100345.53;;;5.18;100.00
69848;BME280;57143;55.940;37.496;2022-10-16T00:02:29;100339.00;;;5.12;100.00
69848;BME280;57143;55.940;37.496;2022-10-16T00:04:56;100341.16;;;5.09;100.00
69848;BME280;57143;55.940;37.496;2022-10-16T00:07:23;100341.47;;;5.06;100.00
69848;BME280;57143;55.940;37.496;2022-10-16T00:09:50;100343.19;;;5.07;100.00
69848;BME280;57143;55.940;37.496;2022-10-16T00:12:18;100360.50;;;5.12;100.00
69848;BME280;57143;55.940;37.496;2022-10-16T00:14:45;100339.66;;;4.98;100.00
69848;BME280;57143;55.940;37.496;2022-10-16T00:17:12;100357.94;;;5.03;100.00
69848;BME280;57143;55.940;37.496;2022-10-16T00:19:39;100359.63;;;5.04;100.00
69848;BME280;57143;55.940;37.496;2022-10-16T00:22:25;100365.16;;;5.02;100.00
69848;BME280;57143;55.940;37.496;2022-10-16T00:24:52;100337.44;;;4.86;100.00
69848;BME280;57143;55.940;37.496;2022-10-16T00:27:20;100366.16;;;5.01;100.00
69848;BME280;57143;55.940;37.496;2022-10-16T00:29:49;100367.03;;;5.02;100.00
69848;BME280;57143;55.940;37.496;2022-10-16T00:32:16;100372.22;;;4.95;100.00
69848;BME280;57143;55.940;37.496;2022-10-16T00:34:44;100373.03;;;4.96;100.00
69848;BME280;57143;55.940;37.496;2022-10-16T00:37:11;100360.94;;;4.84;100.00
69848;BME280;57143;55.940;37.496;2022-10-16T00:39:38;100375.91;;;4.94;100.00
69848;BME280;57143;55.940;37.496;2022-10-16T00:42:05;100351.53;;;4.80;100.00
69848;BME280;57143;55.940;37.496;2022-10-16T00:44:51;100353.38;;;4.79;100.00
69848;BME280;57143;55.940;37.496;2022-10-16T00:47:22;100336.06;;;4.65;100.00
69848;BME280;57143;55.940;37.496;2022-10-16T00:49:54;100363.78;;;4.82;100.00
69848;BME280;57143;55.940;37.496;2022-10-16T00:52:22;100364.97;;;4.80;100.00
69848;BME280;57143;55.940;37.496;2022-10-16T00:54:50;100371.00;;;4.82;100.00
69848;BME280;57143;55.940;37.496;2022-10-16T00:57:19;100319.06;;;4.49;100.00
69848;BME280;57143;55.940;37.496;2022-10-16T00:59:47;100361.44;;;4.71;100.00
69848;BME280;57143;55.940;37.496;2022-10-16T01:02:17;100368.13;;;4.75;100.00
69848;BME280;57143;55.940;37.496;2022-10-16T01:04:46;100341.72;;;4.54;100.00
69848;BME280;57143;55.940;37.496;2022-10-16T01:07:20;100378.19;;;4.73;100.00
69848;BME280;57143;55.940;37.496;2022-10-16T01:09:57;100376.53;;;4.72;100.00
69848;BME280;57143;55.940;37.496;2022-10-16T01:12:34;100338.19;;;4.46;100.00
69848;BME280;57143;55.940;37.496;2022-10-16T01:15:10;100367.28;;;4.66;100.00
69848;BME280;57143;55.940;37.496;2022-10-16T01:17:44;100374.97;;;4.61;100.00
69848;BME280;57143;55.940;37.496;2022-10-16T01:20:20;100378.34;;;4.63;100.00
69848;BME280;57143;55.940;37.496;2022-10-16T01:23:02;100376.66;;;4.62;100.00
69848;BME280;57143;55.940;37.496;2022-10-16T01:25:39;100371.59;;;4.59;100.00
69848;BME280;57143;55.940;37.496;2022-10-16T01:28:15;100362.53;;;4.52;100.00
69848;BME280;57143;55.940;37.496;2022-10-16T01:30:45;100379.66;;;4.59;100.00
69848;BME280;57143;55.940;37.496;2022-10-16T01:33:18;100374.63;;;4.56;100.00
69848;BME280;57143;55.940;37.496;2022-10-16T01:35:51;100377.16;;;4.58;100.00
69848;BME280;57143;55.940;37.496;2022-10-16T01:38:23;100381.66;;;4.57;100.00
69848;BME280;57143;55.940;37.496;2022-10-16T01:40:58;100383.53;;;4.57;100.00
69848;BME280;57143;55.940;37.496;2022-10-16T01:43:31;100364.00;;;4.47;100.00
69848;BME280;57143;55.940;37.496;2022-10-16T01:46:00;100372.75;;;4.49;100.00
69848;BME280;57143;55.940;37.496;2022-10-16T01:48:29;100282.81;;;3.95;100.00
69848;BME280;57143;55.940;37.496;2022-10-16T01:51:00;100376.09;;;4.51;100.00
69848;BME280;57143;55.940;37.496;2022-10-16T01:53:29;100366.03;;;4.45;100.00
69848;BME280;57143;55.940;37.496;2022-10-16T01:55:58;100376.44;;;4.48;100.00
69848;BME280;57143;55.940;37.496;2022-10-16T01:58:28;100379.97;;;4.48;100.00
69848;BME280;57143;55.940;37.496;2022-10-16T02:01:01;100358.94;;;4.36;100.00
69848;BME280;57143;55.940;37.496;2022-10-16T02:03:29;100380.78;;;4.49;100.00
69848;BME280;57143;55.940;37.496;2022-10-16T02:05:57;100374.75;;;4.47;100.00
69848;BME280;57143;55.940;37.496;2022-10-16T02:08:28;100376.94;;;4.43;100.00
69848;BME280;57143;55.940;37.496;2022-10-16T02:10:57;100358.94;;;4.36;100.00
69848;BME280;57143;55.940;37.496;2022-10-16T02:13:29;100374.25;;;4.43;100.00
69848;BME280;57143;55.940;37.496;2022-10-16T02:15:58;100379.47;;;4.45;100.00
69848;BME280;57143;55.940;37.496;2022-10-16T02:18:25;100375.25;;;4.42;100.00
69848;BME280;57143;55.940;37.496;2022-10-16T02:20:59;100377.25;;;4.40;100.00
69848;BME280;57143;55.940;37.496;2022-10-16T02:23:33;100362.13;;;4.31;100.00
69848;BME280;57143;55.940;37.496;2022-10-16T02:26:03;100342.06;;;4.10;100.00
69848;BME280;57143;55.940;37.496;2022-10-16T02:28:36;100324.59;;;4.06;100.00
69848;BME280;57143;55.940;37.496;2022-10-16T02:31:08;100383.94;;;4.36;100.00
69848;BME280;57143;55.940;37.496;2022-10-16T02:33:38;100378.22;;;4.31;100.00
69848;BME280;57143;55.940;37.496;2022-10-16T02:36:07;100387.47;;;4.37;100.00
69848;BME280;57143;55.940;37.496;2022-10-16T02:38:35;100388.63;;;4.34;100.00
69848;BME280;57143;55.940;37.496;2022-10-16T02:41:04;100394.16;;;4.33;100.00
69848;BME280;57143;55.940;37.496;2022-10-16T02:43:31;100379.22;;;4.30;100.00
69848;BME280;57143;55.940;37.496;2022-10-16T02:46:00;100390.63;;;4.32;100.00
69848;BME280;57143;55.940;37.496;2022-10-16T02:48:27;100392.78;;;4.29;100.00
69848;BME280;57143;55.940;37.496;2022-10-16T02:50:54;100390.44;;;4.26;100.00
69848;BME280;57143;55.940;37.496;2022-10-16T02:53:22;100386.22;;;4.23;100.00
69848;BME280;57143;55.940;37.496;2022-10-16T02:55:49;100393.41;;;4.23;100.00
69848;BME280;57143;55.940;37.496;2022-10-16T02:58:16;100377.78;;;4.10;100.00
69848;BME280;57143;55.940;37.496;2022-10-16T03:00:43;100387.34;;;4.13;100.00
69848;BME280;57143;55.940;37.496;2022-10-16T03:03:12;100393.91;;;4.18;100.00
69848;BME280;57143;55.940;37.496;2022-10-16T03:05:39;100382.63;;;4.07;100.00
69848;BME280;57143;55.940;37.496;2022-10-16T03:08:06;100393.22;;;4.16;100.00
69848;BME280;57143;55.940;37.496;2022-10-16T03:10:33;100399.59;;;4.15;100.00
69848;BME280;57143;55.940;37.496;2022-10-16T03:13:00;100399.41;;;4.09;100.00
69848;BME280;57143;55.940;37.496;2022-10-16T03:15:27;100398.91;;;4.13;100.00
69848;BME280;57143;55.940;37.496;2022-10-16T03:17:54;100412.50;;;4.12;100.00
69848;BME280;57143;55.940;37.496;2022-10-16T03:20:23;100392.84;;;4.03;100.00
69848;BME280;57143;55.940;37.496;2022-10-16T03:22:50;100411.13;;;4.08;100.00
69848;BME280;57143;55.940;37.496;2022-10-16T03:25:17;100380.69;;;3.91;100.00
69848;BME280;57143;55.940;37.496;2022-10-16T03:27:44;100412.28;;;4.05;100.00
69848;BME280;57143;55.940;37.496;2022-10-16T03:30:12;100408.59;;;4.06;100.00
69848;BME280;57143;55.940;37.496;2022-10-16T03:32:39;100409.63;;;4.05;100.00
69848;BME280;57143;55.940;37.496;2022-10-16T03:35:06;100413.44;;;4.03;100.00
69848;BME280;57143;55.940;37.496;2022-10-16T03:37:35;100408.56;;;3.98;100.00
69848;BME280;57143;55.940;37.496;2022-10-16T03:40:03;100412.91;;;3.99;100.00
69848;BME280;57143;55.940;37.496;2022-10-16T03:42:30;100418.28;;;3.99;100.00
69848;BME280;57143;55.940;37.496;2022-10-16T03:44:57;100417.28;;;4.00;100.00
69848;BME280;57143;55.940;37.496;2022-10-16T03:47:24;100414.75;;;3.99;100.00
69848;BME280;57143;55.940;37.496;2022-10-16T03:49:51;100410.41;;;3.98;100.00
69848;BME280;57143;55.940;37.496;2022-10-16T03:52:18;100406.69;;;3.99;100.00
69848;BME280;57143;55.940;37.496;2022-10-16T03:54:46;100415.59;;;3.99;100.00
69848;BME280;57143;55.940;37.496;2022-10-16T03:57:13;100415.59;;;3.99;100.00
69848;BME280;57143;55.940;37.496;2022-10-16T03:59:40;100393.75;;;3.86;100.00
69848;BME280;57143;55.940;37.496;2022-10-16T04:02:07;100410.59;;;4.04;100.00
69848;BME280;57143;55.940;37.496;2022-10-16T04:04:34;100403.56;;;4.03;100.00
69848;BME280;57143;55.940;37.496;2022-10-16T04:07:01;100408.72;;;3.97;100.00
69848;BME280;57143;55.940;37.496;2022-10-16T04:09:28;100415.75;;;3.98;100.00
69848;BME280;57143;55.940;37.496;2022-10-16T04:11:56;100421.13;;;3.98;100.00
69848;BME280;57143;55.940;37.496;2022-10-16T04:14:23;100410.56;;;3.96;100.00
69848;BME280;57143;55.940;37.496;2022-10-16T04:16:51;100412.22;;;3.97;100.00
69848;BME280;57143;55.940;37.496;2022-10-16T04:19:17;100411.09;;;4.00;100.00
69848;BME280;57143;55.940;37.496;2022-10-16T04:21:44;100414.09;;;3.97;100.00
69848;BME280;57143;55.940;37.496;2022-10-16T04:24:11;100410.56;;;3.96;100.00
69848;BME280;57143;55.940;37.496;2022-10-16T04:26:38;100398.78;;;3.89;100.00
69848;BME280;57143;55.940;37.496;2022-10-16T04:29:07;100413.75;;;4.00;100.00
69848;BME280;57143;55.940;37.496;2022-10-16T04:31:34;100389.06;;;3.88;100.00
69848;BME280;57143;55.940;37.496;2022-10-16T04:34:01;100408.41;;;4.00;100.00
69848;BME280;57143;55.940;37.496;2022-10-16T04:36:28;100412.75;;;4.01;100.00
69848;BME280;57143;55.940;37.496;2022-10-16T04:38:55;100367.34;;;3.74;100.00
69848;BME280;57143;55.940;37.496;2022-10-16T04:41:22;100422.19;;;4.05;100.00
69848;BME280;57143;55.940;37.496;2022-10-16T04:43:49;100420.34;;;4.05;100.00
69848;BME280;57143;55.940;37.496;2022-10-16T04:46:17;100419.66;;;4.03;100.00
69848;BME280;57143;55.940;37.496;2022-10-16T04:48:44;100422.19;;;4.05;100.00
69848;BME280;57143;55.940;37.496;2022-10-16T04:51:12;100421.84;;;4.08;100.00
69848;BME280;57143;55.940;37.496;2022-10-16T04:53:39;100412.91;;;3.99;100.00
69848;BME280;57143;55.940;37.496;2022-10-16T04:56:06;100426.22;;;4.09;100.00
69848;BME280;57143;55.940;37.496;2022-10-16T04:58:33;100423.22;;;4.12;100.00
69848;BME280;57143;55.940;37.496;2022-10-16T05:01:00;100403.03;;;4.00;100.00
69848;BME280;57143;55.940;37.496;2022-10-16T05:03:29;100419.06;;;4.17;100.00
69848;BME280;57143;55.940;37.496;2022-10-16T05:05:56;100427.81;;;4.19;100.00
69848;BME280;57143;55.940;37.496;2022-10-16T05:08:23;100432.47;;;4.17;100.00
69848;BME280;57143;55.940;37.496;2022-10-16T05:10:50;100426.06;;;4.44;100.00
69848;BME280;57143;55.940;37.496;2022-10-16T05:13:17;100419.78;;;5.19;100.00
69848;BME280;57143;55.940;37.496;2022-10-16T05:15:46;100407.00;;;5.77;100.00
69848;BME280;57143;55.940;37.496;2022-10-16T05:18:14;100408.56;;;6.42;100.00
69848;BME280;57143;55.940;37.496;2022-10-16T05:20:42;100415.81;;;6.88;100.00
69848;BME280;57143;55.940;37.496;2022-10-16T05:23:09;100418.13;;;7.22;100.00
69848;BME280;57143;55.940;37.496;2022-10-16T05:25:37;100414.34;;;7.54;100.00
69848;BME280;57143;55.940;37.496;2022-10-16T05:28:04;100436.06;;;7.75;100.00
69848;BME280;57143;55.940;37.496;2022-10-16T05:30:31;100445.19;;;7.96;100.00
69848;BME280;57143;55.940;37.496;2022-10-16T05:32:58;100440.66;;;8.11;100.00
69848;BME280;57143;55.940;37.496;2022-10-16T05:35:25;100440.34;;;8.29;100.00
69848;BME280;57143;55.940;37.496;2022-10-16T05:37:54;100474.81;;;8.42;100.00
69848;BME280;57143;55.940;37.496;2022-10-16T05:40:21;100469.31;;;8.50;100.00
69848;BME280;57143;55.940;37.496;2022-10-16T05:42:48;100494.59;;;8.71;100.00
69848;BME280;57143;55.940;37.496;2022-10-16T05:45:15;100496.44;;;8.71;100.00
69848;BME280;57143;55.940;37.496;2022-10-16T05:47:42;100508.34;;;8.91;100.00
69848;BME280;57143;55.940;37.496;2022-10-16T05:50:09;100519.16;;;9.20;100.00
69848;BME280;57143;55.940;37.496;2022-10-16T05:52:36;100515.34;;;9.00;100.00
69848;BME280;57143;55.940;37.496;2022-10-16T05:55:05;100530.19;;;9.04;100.00
69848;BME280;57143;55.940;37.496;2022-10-16T05:57:32;100530.19;;;9.04;100.00
69848;BME280;57143;55.940;37.496;2022-10-16T05:59:59;100555.25;;;9.27;100.00
69848;BME280;57143;55.940;37.496;2022-10-16T06:02:26;100559.25;;;9.31;100.00
69848;BME280;57143;55.940;37.496;2022-10-16T06:04:53;100562.34;;;9.13;100.00
69848;BME280;57143;55.940;37.496;2022-10-16T06:07:21;100575.75;;;9.36;100.00
69848;BME280;57143;55.940;37.496;2022-10-16T06:09:48;100578.81;;;9.48;100.00
69848;BME280;57143;55.940;37.496;2022-10-16T06:12:18;100582.09;;;9.58;100.00
69848;BME280;57143;55.940;37.496;2022-10-16T06:14:45;100575.56;;;9.88;100.00
69848;BME280;57143;55.940;37.496;2022-10-16T06:17:13;100568.47;;;9.87;100.00
69848;BME280;57143;55.940;37.496;2022-10-16T06:19:40;100574.88;;;10.00;100.00
69848;BME280;57143;55.940;37.496;2022-10-16T06:22:07;100587.41;;;10.08;100.00
69848;BME280;57143;55.940;37.496;2022-10-16T06:24:34;100588.59;;;9.99;100.00
69848;BME280;57143;55.940;37.496;2022-10-16T06:27:01;100590.81;;;10.10;100.00
69848;BME280;57143;55.940;37.496;2022-10-16T06:29:31;100592.78;;;10.16;100.00
69848;BME280;57143;55.940;37.496;2022-10-16T06:31:58;100601.53;;;10.18;100.00
69848;BME280;57143;55.940;37.496;2022-10-16T06:34:26;100594.63;;;10.36;100.00
69848;BME280;57143;55.940;37.496;2022-10-16T06:36:53;100593.13;;;10.34;100.00
69848;BME280;57143;55.940;37.496;2022-10-16T06:39:20;100601.00;;;10.29;100.00
69848;BME280;57143;55.940;37.496;2022-10-16T06:41:48;100586.06;;;10.33;100.00
69848;BME280;57143;55.940;37.496;2022-10-16T06:44:15;100601.31;;;10.62;100.00
69848;BME280;57143;55.940;37.496;2022-10-16T06:46:43;100619.53;;;10.68;100.00
69848;BME280;57143;55.940;37.496;2022-10-16T06:49:10;100625.38;;;10.71;100.00
69848;BME280;57143;55.940;37.496;2022-10-16T06:51:37;100614.66;;;10.63;100.00
69848;BME280;57143;55.940;37.496;2022-10-16T06:54:06;100623.78;;;10.77;100.00
69848;BME280;57143;55.940;37.496;2022-10-16T06:56:34;100620.63;;;10.73;100.00
69848;BME280;57143;55.940;37.496;2022-10-16T06:59:02;100597.69;;;10.76;100.00
69848;BME280;57143;55.940;37.496;2022-10-16T07:01:29;100631.09;;;10.83;100.00
69848;BME280;57143;55.940;37.496;2022-10-16T07:03:58;100634.72;;;10.90;100.00
69848;BME280;57143;55.940;37.496;2022-10-16T07:06:26;100632.44;;;10.93;100.00
69848;BME280;57143;55.940;37.496;2022-10-16T07:08:53;100633.66;;;11.18;100.00
69848;BME280;57143;55.940;37.496;2022-10-16T07:11:21;100633.38;;;10.79;100.00
69848;BME280;57143;55.940;37.496;2022-10-16T07:13:50;100641.56;;;11.13;100.00
69848;BME280;57143;55.940;37.496;2022-10-16T07:16:18;100638.56;;;11.36;100.00
69848;BME280;57143;55.940;37.496;2022-10-16T07:18:46;100639.00;;;11.33;100.00
69848;BME280;57143;55.940;37.496;2022-10-16T07:21:18;100629.03;;;11.46;100.00
69848;BME280;57143;55.940;37.496;2022-10-16T07:23:50;100640.22;;;11.30;100.00
69848;BME280;57143;55.940;37.496;2022-10-16T07:26:17;100645.41;;;11.25;100.00
69848;BME280;57143;55.940;37.496;2022-10-16T07:28:44;100645.78;;;11.56;100.00
69848;BME280;57143;55.940;37.496;2022-10-16T07:31:13;100647.88;;;11.54;100.00
69848;BME280;57143;55.940;37.496;2022-10-16T07:33:41;100651.00;;;11.51;100.00
69848;BME280;57143;55.940;37.496;2022-10-16T07:36:10;100653.22;;;11.69;100.00
69848;BME280;57143;55.940;37.496;2022-10-16T07:38:39;100655.94;;;11.76;100.00
69848;BME280;57143;55.940;37.496;2022-10-16T07:41:10;100664.22;;;11.61;100.00
69848;BME280;57143;55.940;37.496;2022-10-16T07:43:37;100647.00;;;11.75;100.00
69848;BME280;57143;55.940;37.496;2022-10-16T07:46:04;100637.06;;;11.61;100.00
69848;BME280;57143;55.940;37.496;2022-10-16T07:48:33;100667.22;;;11.73;100.00
69848;BME280;57143;55.940;37.496;2022-10-16T07:51:01;100660.13;;;11.72;100.00
69848;BME280;57143;55.940;37.496;2022-10-16T07:53:28;100666.56;;;11.64;100.00
69848;BME280;57143;55.940;37.496;2022-10-16T07:55:59;100652.63;;;11.46;100.00
69848;BME280;57143;55.940;37.496;2022-10-16T07:58:26;100658.16;;;11.59;100.00
69848;BME280;57143;55.940;37.496;2022-10-16T08:00:53;100667.03;;;11.81;100.00
69848;BME280;57143;55.940;37.496;2022-10-16T08:03:20;100654.09;;;11.76;100.00
69848;BME280;57143;55.940;37.496;2022-10-16T08:05:47;100654.94;;;11.83;100.00
69848;BME280;57143;55.940;37.496;2022-10-16T08:08:15;100669.44;;;11.97;100.00
69848;BME280;57143;55.940;37.496;2022-10-16T08:10:42;100666.34;;;12.13;100.00
69848;BME280;57143;55.940;37.496;2022-10-16T08:13:11;100668.44;;;12.11;100.00
69848;BME280;57143;55.940;37.496;2022-10-16T08:15:40;100665.09;;;12.22;100.00
69848;BME280;57143;55.940;37.496;2022-10-16T08:18:07;100669.81;;;11.87;100.00
69848;BME280;57143;55.940;37.496;2022-10-16T08:20:34;100672.63;;;11.38;100.00
69848;BME280;57143;55.940;37.496;2022-10-16T08:23:02;100665.47;;;11.31;100.00
69848;BME280;57143;55.940;37.496;2022-10-16T08:25:29;100668.25;;;11.10;100.00
69848;BME280;57143;55.940;37.496;2022-10-16T08:27:56;100647.16;;;11.05;100.00
69848;BME280;57143;55.940;37.496;2022-10-16T08:30:24;100659.28;;;10.82;100.00
69848;BME280;57143;55.940;37.496;2022-10-16T08:32:52;100655.66;;;10.75;100.00
69848;BME280;57143;55.940;37.496;2022-10-16T08:35:19;100652.97;;;10.54;100.00
69848;BME280;57143;55.940;37.496;2022-10-16T08:37:46;100652.06;;;10.68;100.00
69848;BME280;57143;55.940;37.496;2022-10-16T08:40:18;100652.75;;;10.55;100.00
69848;BME280;57143;55.940;37.496;2022-10-16T08:42:58;100649.16;;;10.48;100.00
69848;BME280;57143;55.940;37.496;2022-10-16T08:45:37;100661.50;;;10.51;100.00
69848;BME280;57143;55.940;37.496;2022-10-16T08:48:19;100643.47;;;10.43;100.00
69848;BME280;57143;55.940;37.496;2022-10-16T08:50:48;100638.66;;;10.38;100.00
69848;BME280;57143;55.940;37.496;2022-10-16T08:53:22;100648.88;;;10.43;100.00
69848;BME280;57143;55.940;37.496;2022-10-16T08:55:52;100577.81;;;10.05;100.00
69848;BME280;57143;55.940;37.496;2022-10-16T08:58:21;100642.50;;;10.51;100.00
69848;BME280;57143;55.940;37.496;2022-10-16T09:00:53;100633.31;;;10.73;100.00
69848;BME280;57143;55.940;37.496;2022-10-16T09:03:33;100635.59;;;10.48;100.00
69848;BME280;57143;55.940;37.496;2022-10-16T09:06:13;100642.44;;;10.44;100.00
69848;BME280;57143;55.940;37.496;2022-10-16T09:08:57;100648.84;;;10.58;100.00
69848;BME280;57143;55.940;37.496;2022-10-16T09:11:38;100650.00;;;10.48;100.00
69848;BME280;57143;55.940;37.496;2022-10-16T09:14:22;100646.44;;;10.48;100.00
69848;BME280;57143;55.940;37.496;2022-10-16T09:16:56;100661.75;;;10.56;100.00
69848;BME280;57143;55.940;37.496;2022-10-16T09:19:31;100654.72;;;10.61;100.00
69848;BME280;57143;55.940;37.496;2022-10-16T09:22:10;100648.78;;;10.79;100.00
69848;BME280;57143;55.940;37.496;2022-10-16T09:24:39;100632.16;;;10.82;100.00
69848;BME280;57143;55.940;37.496;2022-10-16T09:27:08;100633.81;;;10.83;100.00
69848;BME280;57143;55.940;37.496;2022-10-16T09:29:38;100633.28;;;10.94;100.00
69848;BME280;57143;55.940;37.496;2022-10-16T09:32:11;100645.56;;;10.90;100.00
69848;BME280;57143;55.940;37.496;2022-10-16T09:34:57;100627.25;;;10.98;100.00
69848;BME280;57143;55.940;37.496;2022-10-16T09:37:31;100644.44;;;11.05;100.00
69848;BME280;57143;55.940;37.496;2022-10-16T09:40:25;100616.16;;;10.93;100.00
69848;BME280;57143;55.940;37.496;2022-10-16T09:42:57;100649.47;;;11.08;100.00
69848;BME280;57143;55.940;37.496;2022-10-16T09:45:34;100639.09;;;11.18;100.00
69848;BME280;57143;55.940;37.496;2022-10-16T09:48:10;100633.97;;;11.30;100.00
69848;BME280;57143;55.940;37.496;2022-10-16T09:50:37;100618.31;;;11.32;100.00
69848;BME280;57143;55.940;37.496;2022-10-16T09:53:11;100635.72;;;11.44;100.00
69848;BME280;57143;55.940;37.496;2022-10-16T09:55:48;100625.13;;;11.55;100.00
69848;BME280;57143;55.940;37.496;2022-10-16T09:58:16;100622.22;;;11.63;100.00
69848;BME280;57143;55.940;37.496;2022-10-16T10:00:49;100608.41;;;11.52;100.00
69848;BME280;57143;55.940;37.496;2022-10-16T10:03:36;100624.22;;;11.76;100.00
69848;BME280;57143;55.940;37.496;2022-10-16T10:06:16;100525.03;;;10.99;100.00
69848;BME280;57143;55.940;37.496;2022-10-16T10:08:56;100632.72;;;11.67;100.00
69848;BME280;57143;55.940;37.496;2022-10-16T10:11:43;100630.44;;;11.70;100.00
69848;BME280;57143;55.940;37.496;2022-10-16T10:14:24;100626.47;;;11.66;100.00
69848;BME280;57143;55.940;37.496;2022-10-16T10:17:01;100622.50;;;11.69;100.00
69848;BME280;57143;55.940;37.496;2022-10-16T10:19:36;100605.13;;;11.63;100.00
69848;BME280;57143;55.940;37.496;2022-10-16T10:22:15;100610.28;;;11.58;100.00
69848;BME280;57143;55.940;37.496;2022-10-16T10:24:44;100628.72;;;11.62;100.00
69848;BME280;57143;55.940;37.496;2022-10-16T10:27:15;100618.75;;;11.70;100.00
69848;BME280;57143;55.940;37.496;2022-10-16T10:29:49;100612.97;;;11.51;100.00
69848;BME280;57143;55.940;37.496;2022-10-16T10:32:27;100623.53;;;11.68;100.00
69848;BME280;57143;55.940;37.496;2022-10-16T10:35:21;100607.84;;;11.63;100.00
69848;BME280;57143;55.940;37.496;2022-10-16T10:38:06;100571.19;;;11.46;100.00
69848;BME280;57143;55.940;37.496;2022-10-16T10:40:43;100619.19;;;11.73;100.00
69848;BME280;57143;55.940;37.496;2022-10-16T10:43:23;100603.22;;;11.63;100.00
69848;BME280;57143;55.940;37.496;2022-10-16T10:45:58;100601.63;;;11.69;100.00
69848;BME280;57143;55.940;37.496;2022-10-16T10:48:57;100592.47;;;11.77;100.00
69848;BME280;57143;55.940;37.496;2022-10-16T10:51:39;100603.28;;;11.70;100.00
69848;BME280;57143;55.940;37.496;2022-10-16T10:54:16;100602.84;;;11.67;100.00
69848;BME280;57143;55.940;37.496;2022-10-16T10:56:51;100604.28;;;11.62;100.00
69848;BME280;57143;55.940;37.496;2022-10-16T10:59:36;100511.09;;;11.08;100.00
69848;BME280;57143;55.940;37.496;2022-10-16T11:02:10;100617.06;;;11.69;100.00
69848;BME280;57143;55.940;37.496;2022-10-16T11:04:54;100578.31;;;11.47;100.00
69848;BME280;57143;55.940;37.496;2022-10-16T11:07:31;100605.81;;;11.72;100.00
69848;BME280;57143;55.940;37.496;2022-10-16T11:10:05;100616.25;;;11.75;100.00
69848;BME280;57143;55.940;37.496;2022-10-16T11:12:38;100622.34;;;11.77;100.00
69848;BME280;57143;55.940;37.496;2022-10-16T11:15:12;100599.09;;;11.68;100.00
69848;BME280;57143;55.940;37.496;2022-10-16T11:17:42;100601.44;;;11.77;100.00
69848;BME280;57143;55.940;37.496;2022-10-16T11:20:16;100586.97;;;11.70;100.00
69848;BME280;57143;55.940;37.496;2022-10-16T11:22:50;100594.53;;;11.68;100.00
69848;BME280;57143;55.940;37.496;2022-10-16T11:25:21;100598.41;;;11.59;100.00
69848;BME280;57143;55.940;37.496;2022-10-16T11:27:54;100576.66;;;11.52;100.00
69848;BME280;57143;55.940;37.496;2022-10-16T11:30:25;100593.63;;;11.61;100.00
69848;BME280;57143;55.940;37.496;2022-10-16T11:33:08;100592.34;;;11.63;100.00
69848;BME280;57143;55.940;37.496;2022-10-16T11:35:41;100602.59;;;11.61;100.00
69848;BME280;57143;55.940;37.496;2022-10-16T11:38:16;100599.19;;;11.53;100.00
69848;BME280;57143;55.940;37.496;2022-10-16T11:40:49;100607.56;;;11.58;100.00
69848;BME280;57143;55.940;37.496;2022-10-16T11:43:22;100595.03;;;11.50;100.00
69848;BME280;57143;55.940;37.496;2022-10-16T11:45:54;100598.19;;;11.54;100.00
69848;BME280;57143;55.940;37.496;2022-10-16T11:48:26;100580.59;;;11.43;100.00
69848;BME280;57143;55.940;37.496;2022-10-16T11:51:00;100550.22;;;11.27;100.00
69848;BME280;57143;55.940;37.496;2022-10-16T11:53:40;100592.94;;;11.52;100.00
69848;BME280;57143;55.940;37.496;2022-10-16T11:56:12;100589.19;;;11.53;100.00
69848;BME280;57143;55.940;37.496;2022-10-16T11:58:43;100599.84;;;11.55;100.00
69848;BME280;57143;55.940;37.496;2022-10-16T12:01:18;100599.41;;;11.51;100.00
69848;BME280;57143;55.940;37.496;2022-10-16T12:04:03;100594.38;;;11.48;100.00
69848;BME280;57143;55.940;37.496;2022-10-16T12:06:39;100600.69;;;11.55;100.00
69848;BME280;57143;55.940;37.496;2022-10-16T12:09:15;100595.84;;;11.51;100.00
69848;BME280;57143;55.940;37.496;2022-10-16T12:11:46;100586.69;;;11.52;100.00
69848;BME280;57143;55.940;37.496;2022-10-16T12:14:22;100592.28;;;11.44;100.00
69848;BME280;57143;55.940;37.496;2022-10-16T12:17:02;100579.09;;;11.41;100.00
69848;BME280;57143;55.940;37.496;2022-10-16T12:19:31;100589.16;;;11.47;100.00
69848;BME280;57143;55.940;37.496;2022-10-16T12:22:00;100586.88;;;11.50;100.00
69848;BME280;57143;55.940;37.496;2022-10-16T12:24:33;100574.53;;;11.48;100.00
69848;BME280;57143;55.940;37.496;2022-10-16T12:27:01;100584.75;;;11.46;100.00
69848;BME280;57143;55.940;37.496;2022-10-16T12:29:35;100502.69;;;10.97;100.00
69848;BME280;57143;55.940;37.496;2022-10-16T12:32:04;100571.34;;;11.31;100.00
69848;BME280;57143;55.940;37.496;2022-10-16T12:34:39;100549.59;;;11.25;100.00
69848;BME280;57143;55.940;37.496;2022-10-16T12:37:12;100583.06;;;11.38;100.00
69848;BME280;57143;55.940;37.496;2022-10-16T12:39:41;100580.75;;;11.35;100.00
69848;BME280;57143;55.940;37.496;2022-10-16T12:42:30;100565.69;;;11.26;100.00
69848;BME280;57143;55.940;37.496;2022-10-16T12:44:59;100576.31;;;11.28;100.00
69848;BME280;57143;55.940;37.496;2022-10-16T12:47:37;100575.03;;;11.24;100.00
69848;BME280;57143;55.940;37.496;2022-10-16T12:50:23;100575.88;;;11.24;100.00
69848;BME280;57143;55.940;37.496;2022-10-16T12:52:51;100578.19;;;11.27;100.00